Relevés horaires St-Hubert (Belgique)


Relevés horaires à St-Hubert - Vendredi 13 Mai 2022
Heure UTC1 Température [°C] Vent [km/h] Hum. [%] Pres.4 [hPa] Visi. [Km] Nébu. [octa] Préc.5 [mm] Cond.
2m. Res. Ros. Dir.2 Vit. Moy. Raf.3
23:00 8.9 8.9 5.3 ONO 3.7 5.6 9.3 78 1023.5(0.3/3h) 45 0/8 -- --
22:00 8.9 8.9 4.6 O 1.9 3.7 5.6 74 1023.5(0.5/3h) 45 0/8 -- --
21:00 8.9 8.9 4.4 OSO 1.9 5.6 13.0 73 1023.4(0.5/3h) 45 0/8 -- --
20:00 10.6 10.6 5.9 O 3.7 3.7 7.4 73 1022.7(0.5/3h) 45 0/8 -- --
19:00 12.1 12.1 5.7 OSO 3.7 5.6 13.0 65 1022.2(0.5/3h) 35 0/8 -- --
18:00 15.0 15.0 5.4 OSO 5.6 9.3 14.8 53 1021.4(0.3/3h) 40 0/8 0/12h
--
17:00 16.1 16.1 5.4 SO 5.6 7.4 14.8 49 1020.9(-0.1/3h) 30 0/8 -- --
16:00 16.9 16.9 4.8 O 5.6 7.4 13.0 45 1020.6(-0.5/3h) 40 0/8 -- --
15:00 16.4 16.4 6.0 O 7.4 9.3 14.8 50 1020.7(-0.4/3h) 40 0/8 -- --
14:00 15.8 15.8 4.6 O 7.4 9.3 13.0 47 1021.1(-0.4/3h) 35 0/8 -- --
13:00 15.6 15.6 4.2 O 7.4 9.3 14.8 47 1021.4(-0.2/3h) 35 0/8 -- --
12:00 14.6 14.5 4.2 O 7.4 9.3 16.7 50 1021.6(-0.3/3h) 35 0/8 0/6h
--
11:00 14.0 14.0 5.6 O 5.6 9.3 16.7 57 1021.9(0.1/3h) 35 0/8 -- --
10:00 12.7 12 4.4 O 9.3 9.3 14.8 57 1022.3(0.6/3h) 29 1/8 -- --
09:00 11.6 11 4.2 O 7.4 9.3 14.8 60 1022.7(1.2/3h) 35 5/8 -- --
08:00 10.4 9.6 4.0 O 7.4 7.4 13.0 64 1022.6(1.4/3h) 40 1/8 -- --
07:00 8.8 8.2 4.4 O 5.6 5.6 11.1 74 1022.5(1.2/3h) 35 0/8 -- --
06:00 6.7 6.7 3.6 OSO 3.7 5.6 9.3 81 1022.6(0.8/3h) 35 0/8 0/12h
--
05:00 5.1 5.1 2.6 O 3.7 3.7 7.4 84 1022.4(-0.1/3h) 40 0/8 -- --
04:00 5.2 5.2 3.3 O 3.7 3.7 7.4 88 1022.1(-0.3/3h) 45 8/8 -- --
03:00 4.7 4.7 1.9 OSO 3.7 5.6 9.3 82 1022.3(-0.3/3h) 40 0/8 -- --
02:00 6.9 6.9 3.2 O 3.7 5.6 9.3 77 1022(-0.2/3h) 45 7/8 -- --
01:00 7.2 7.2 3.6 O 3.7 3.7 7.4 78 1021.9(0.0/3h) 45 0/8 -- --
00:00 6.8 6.8 4.0 O 1.9 5.6 11.1 82 1022(0.2/3h) 35 0/8 0/6h
0/24h
--

1 Coordinated Universal Time. Actuellement il est 10:00 locale et 09:00 UTC.

2 Le vent souffle depuis la direction indiquée vers la direction oposée.

3 Les rafales max. sont disponible 40 min après l'heure du relevé.

4 Pour les stations d'altitude (plus de 600m) le géopotentiel du niveau le plus proche de la pression obligatoire est indiqué.

5 Les stations disposant d'un diffuseur peuvent indiquer "trace". Cela signifie que des précipitations ont touchés le sol mais que la quantité est inférieure à 0.1 mm.

Récapitulatif de la journée
Température [°C] Vent [km/h] Ensoleillement4 [h] Precipitations totale5 [mm] Pression [Hpa]
Min1 Max.2 Moy.3 Max. Min Max.
3.1 17.3 6.7 16.7 0 h 0 min 0 1020.6 1023.5

1 Température minimale relevée entre 18:00 UTC la veille et 18:00 UTC le jour donné.

2 Température maximale relevée entre 06:00 UTC le jour donné et 06:00 UTC le lendemain.

3 Vent moyen de la journée basé sur les relevés horaires.

4 Ensoleillement en heures relevé entre 06:00 UTC la veille et 06:00 UTC le jour donné.

5 Précipitations totales tombées entre 06:00 UTC la jour donné et 06:00 UTC le lendemain.

Graphiques horaires